Terminal Aerodrome Forecast
Issued by NWS Boston, MA

Home | Current Version | Previous Version | Text Only | Print | Product List | Glossary On
Versions: 1 2 3 4 5 6 7 8 9 10 11 12 13 14 15 16 17 18 19 20 21 22 23 24 25 26 27 28 29 30 31 32 33 34 35
000
FTUS41 KBOX 311731
TAFORH
TAF
KORH 311731Z 3118/0118 31019G30KT 6SM BLSN SKC
     FM311900 31018G28KT P6SM SKC
     FM312200 30016KT P6SM SKC
     FM010800 27009KT P6SM FEW250=

USA.gov is the U.S. government's official web portal to all federal, state and local government web resources and services.